FQPB

Pemba Airport

Pemba / Porto Amelia, Mozambique
METAR FQPB 171700Z 11003KT 9999 SCT018 FEW025CB OVC090 26/25 Q1011 RMK CB TO SE/S/W/NW
Observed Flight Rules
Dec-17 @ 17:00 UTC (4 hours ago) Visual Flight Rules
Wind Visibility Clouds
110° at 3 knots 10,000+ meters
  • Scattered at 1,800' AGL
  • Few at 2,500' AGL
  • Overcast at 9,000' AGL
Temperatures Readings
Current 26°C / 79°F
Dewpoint 25°C / 77°F
Humidity 94%
Altimeter 29.85" Hg
Pressure 1011 hPa
Elevation 50
METAR FQPB 171700Z 11003KT 9999 SCT018 FEW025CB OVC090 26/25 Q1011 RMK CB TO SE/S/W/NW
Observed Flight Rules
Dec-17 @ 17:00 UTC
(4 hours ago)
VFR
Wind Visibility
110° at 3 knots 10,000+ meters
Clouds
  • Scattered at 1,800' AGL
  • Few at 2,500' AGL
  • Overcast at 9,000' AGL
Temperature Dewpoint
26°C / 79°F 25°C / 77°F
Humidity Altimeter Pressure
94% 29.85" Hg 1011 hPa